Terminal Aerodrome Forecast
Issued by NWS

Home | Current Version | Previous Version | Text Only | Print | Product List | Glossary On
Versions: 1 2 3 4 5 6 7 8 9 10 11 12 13 14 15 16 17 18 19 20 21 22 23 24 25
000
FTUS42 KFFC 281410 AAA
TAFRYY
TAF AMD
KRYY 281410Z 2814/2912 25008KT P6SM BKN015
     FM281600 27012G18KT P6SM SCT020 BKN035
     FM281800 26012G20KT P6SM VCSH BKN050
     FM290100 25007KT P6SM SCT050 BKN100=

USA.gov is the U.S. government's official web portal to all federal, state and local government web resources and services.